»·PEaware :: SWA425 KBUR-KLAS

SWA425 :: KBUR-KLAS

FLIGHT INFORMATION

Flight Status: Arrived
Operator:
Southwest Airlines
More flights by this operator :: More flights under this callsign
Pilot: Nuno G. (17304)
Aircraft: BOEING 737-300
(B733)
More flights by this aircraft type
Origin: KBUR Bob Hope-Burbank
United States
Destination: KLAS McCarran Intl
United States
More flights between these airports :: More routes between these airports
Route: +VNY3 DAG KEPEC6
File this flight plan on PilotEdge
Remarks: I5
Altitude:
(Current/Filed)
37,000ft
Speed:
(Current/Filed)
160kts
Departed: 12-Jan-18 02:07 PM
Arrived: 12-Jan-18 03:04 PM
Distance/Time
Traveled:
194nm/0:57
Distance/Time
To Go:
Arrived

Flight Plot

Page will automatically refresh every two minutes.

Flight plan parsing failed; only flown route is shown


Map Options




Map Legend


Flown Route
Filed Route
Departure Airport
Arrival Airport
Navaid (VOR, NDB)
Fix

Horizontal Profiles

Position Reports

Time Latitude Longitude Heading Altitude Ground
Speed
12-Jan-18 13:34 34.196773 -118.351977 180 783ft 0kts
12-Jan-18 13:35 34.196773 -118.351977 180 783ft 0kts
12-Jan-18 13:36 34.196773 -118.351977 180 783ft 0kts
12-Jan-18 13:37 34.196773 -118.351977 180 783ft 0kts
12-Jan-18 13:38 34.196773 -118.351977 180 783ft 0kts
12-Jan-18 13:39 34.196773 -118.351977 180 783ft 0kts
12-Jan-18 13:40 34.196773 -118.351977 180 783ft 0kts
12-Jan-18 13:41 34.196773 -118.351977 180 783ft 0kts
12-Jan-18 13:42 34.196773 -118.351977 180 783ft 0kts
12-Jan-18 13:43 34.196773 -118.351977 180 783ft 0kts
12-Jan-18 13:44 34.196773 -118.351977 180 783ft 0kts
12-Jan-18 13:45 34.196773 -118.351977 180 783ft 0kts
12-Jan-18 13:46 34.196773 -118.351977 180 783ft 0kts
12-Jan-18 13:47 34.196773 -118.351977 180 783ft 0kts
12-Jan-18 13:48 34.196773 -118.351977 180 783ft 0kts
12-Jan-18 13:49 34.196773 -118.351977 180 783ft 0kts
12-Jan-18 13:50 34.196773 -118.351977 180 783ft 0kts
12-Jan-18 13:51 34.196773 -118.351977 180 783ft 0kts
12-Jan-18 13:52 34.196773 -118.351977 180 783ft 0kts
12-Jan-18 13:53 34.196773 -118.351977 180 783ft 0kts
12-Jan-18 13:54 34.196773 -118.351977 180 783ft 0kts
12-Jan-18 13:55 34.196773 -118.351977 180 783ft 0kts
12-Jan-18 13:56 34.196773 -118.351977 180 783ft 0kts
12-Jan-18 13:57 34.196773 -118.351977 180 783ft 0kts
12-Jan-18 13:58 34.196773 -118.351977 180 783ft 0kts
12-Jan-18 13:59 34.197173 -118.351929 243 783ft 1kts
12-Jan-18 14:00 34.197185 -118.351773 270 783ft 0kts
12-Jan-18 14:01 34.197185 -118.351773 270 783ft 0kts
12-Jan-18 14:02 34.197185 -118.351773 270 783ft 0kts
12-Jan-18 14:03 34.197185 -118.351773 270 783ft 0kts
12-Jan-18 14:04 34.197185 -118.351773 270 783ft 0kts
12-Jan-18 14:05 34.197185 -118.351773 270 783ft 0kts
12-Jan-18 14:06 34.197219 -118.353519 270 783ft 4kts
12-Jan-18 14:07 34.200756 -118.355896 347 783ft 25kts
12-Jan-18 14:08 34.207136 -118.357679 347 783ft 29kts
12-Jan-18 14:09 34.211356 -118.358883 334 783ft 7kts
12-Jan-18 14:10 34.211558 -118.359054 317 783ft 0kts
12-Jan-18 14:11 34.211558 -118.359054 317 783ft 0kts
12-Jan-18 14:12 34.211389 -118.360191 171 783ft 2kts
12-Jan-18 14:13 34.184032 -118.354759 199 2056ft 135kts
12-Jan-18 14:14 34.152758 -118.389507 225 3967ft 169kts
12-Jan-18 14:15 34.162183 -118.436433 348 4654ft 249kts
12-Jan-18 14:16 34.234634 -118.445360 352 7925ft 276kts
12-Jan-18 14:17 34.312376 -118.452473 352 10797ft 306kts
12-Jan-18 14:18 34.400594 -118.462971 352 13614ft 331kts
12-Jan-18 14:19 34.473109 -118.407101 58 14009ft 360kts
12-Jan-18 14:20 34.523721 -118.300776 56 16445ft 372kts
12-Jan-18 14:21 34.574680 -118.189243 57 18872ft 388kts
12-Jan-18 14:22 34.627349 -118.072387 62 21158ft 405kts
12-Jan-18 14:23 34.645860 -117.933061 79 22943ft 427kts
12-Jan-18 14:24 34.661349 -117.790342 79 23847ft 432kts
12-Jan-18 14:25 34.693558 -117.648672 69 25705ft 441kts
12-Jan-18 14:26 34.730613 -117.504484 69 27358ft 455kts
12-Jan-18 14:27 34.768453 -117.355990 69 28981ft 465kts
12-Jan-18 14:28 34.805513 -117.209390 69 31207ft 453kts
12-Jan-18 14:29 34.842562 -117.062379 69 32673ft 455kts
12-Jan-18 14:30 34.879230 -116.916024 69 34071ft 453kts
12-Jan-18 14:31 34.915069 -116.771167 69 35265ft 452kts
12-Jan-18 14:32 34.951513 -116.623042 70 33089ft 462kts
12-Jan-18 14:33 35.021898 -116.502325 39 29275ft 442kts
12-Jan-18 14:34 35.107142 -116.397940 41 25226ft 439kts
12-Jan-18 14:35 35.187254 -116.297738 42 24252ft 422kts
12-Jan-18 14:36 35.269182 -116.194956 42 24267ft 423kts
12-Jan-18 14:37 35.350628 -116.092496 42 22747ft 419kts
12-Jan-18 14:38 35.429166 -115.993382 42 20505ft 395kts
12-Jan-18 14:39 35.503635 -115.899157 42 18357ft 377kts
12-Jan-18 14:40 35.575635 -115.807784 42 15937ft 359kts
12-Jan-18 14:41 35.641696 -115.723745 42 14068ft 331kts
12-Jan-18 14:42 35.701325 -115.647279 41 12969ft 299kts
12-Jan-18 14:43 35.759745 -115.574025 29 12990ft 296kts
12-Jan-18 14:44 35.827800 -115.524095 26 13016ft 273kts
12-Jan-18 14:45 35.890671 -115.478257 25 13002ft 249kts
12-Jan-18 14:46 35.951422 -115.433912 26 12986ft 262kts
12-Jan-18 14:47 36.018794 -115.407648 328 13327ft 277kts
12-Jan-18 14:48 36.012570 -115.488944 224 13485ft 302kts
12-Jan-18 14:49 36.013959 -115.575746 321 13622ft 269kts
12-Jan-18 14:50 36.090782 -115.579461 34 12326ft 329kts
12-Jan-18 14:51 36.114848 -115.487645 108 11606ft 274kts
12-Jan-18 14:52 36.066765 -115.417886 135 10940ft 265kts
12-Jan-18 14:53 36.028543 -115.342952 95 10973ft 268kts
12-Jan-18 14:54 36.022607 -115.256599 95 9871ft 260kts
12-Jan-18 14:55 36.016481 -115.169211 94 8777ft 238kts
12-Jan-18 14:56 36.011071 -115.089224 94 7924ft 232kts
12-Jan-18 14:57 36.006254 -115.009299 93 7975ft 234kts
12-Jan-18 14:58 36.001475 -114.928700 93 8002ft 238kts
12-Jan-18 14:59 35.996627 -114.847643 93 7978ft 233kts
12-Jan-18 15:00 35.991359 -114.767155 93 7595ft 236kts
12-Jan-18 15:01 36.008189 -114.698526 14 6152ft 225kts
12-Jan-18 15:02 36.047872 -114.742653 291 4953ft 201kts
12-Jan-18 15:03 36.050920 -114.805801 267 4980ft 187kts
12-Jan-18 15:04 36.067044 -114.865284 291 5001ft 183kts
12-Jan-18 15:05 36.073709 -114.927444 266 4501ft 187kts
12-Jan-18 15:06 36.071768 -114.986427 271 4303ft 164kts
12-Jan-18 15:07 36.072482 -115.035592 273 3481ft 134kts
12-Jan-18 15:08 36.073723 -115.083161 270 2804ft 137kts
12-Jan-18 15:09 36.073625 -115.129102 269 2139ft 135kts
12-Jan-18 15:10 36.074561 -115.150219 300 2118ft 0kts
12-Jan-18 15:11 36.074643 -115.150390 300 2118ft 0kts
12-Jan-18 15:12 36.077701 -115.152547 9 2118ft 14kts
12-Jan-18 15:13 36.078583 -115.147758 74 2118ft 8kts
12-Jan-18 15:14 36.079470 -115.146740 27 2118ft 0kts
12-Jan-18 15:15 36.079470 -115.146740 27 2118ft 0kts
12-Jan-18 15:16 36.079470 -115.146740 27 2118ft 0kts
12-Jan-18 15:17 36.079470 -115.146740 27 2118ft 0kts

Navigation Log

Ident Type
Flight plan parsing failed, navigation log unavailable